Barre Y Va 3 — FAD9023 — position and weather

sailwx.info

Track history (hours):
 
Tides and Currents Weather Stations Pressure Air Temp Water Temp Dewpoint Dewpoint Depression Visibility Wind Speed Wind Dir Waves Ship Positions

Barre Y Va 3

Last reported at 2017-Sep-03 15:39 UTC. Time now 2017-Sep-20 18:34 UTC.
Position N 49°29' E 000°06'.
Warning: this ship's position is 17 days out of date.

Length 10 m.

Type: Sailing vessel. MMSI: 227442420.

Date/timePositionNaut miles runAvg speedWind from/ knotsBaromVisibWave heightAir tempDewpointWater temp
2017-Sep-03 15:39N 49°29' E 000°06'0 0.0
2017-Sep-03 15:30N 49°29' E 000°06'0 0.0
2017-Sep-03 13:26N 49°29' E 000°06'0 0.0
2017-Sep-03 12:59N 49°29' E 000°06'0 0.0
2017-Sep-03 12:29N 49°29' E 000°06'0 0.0
2017-Sep-03 11:59N 49°29' E 000°06'0 0.0
2017-Sep-03 11:29N 49°29' E 000°06'0 0.0
2017-Sep-03 06:48N 49°29' E 000°06'0 0.0
2017-Sep-03 06:30N 49°29' E 000°06'0 0.0
2017-Sep-03 06:00N 49°29' E 000°06'0 0.0
2017-Sep-02 17:59N 49°29' E 000°06'0 0.0
2017-Sep-02 17:29N 49°29' E 000°06'1 1.9
2017-Sep-02 17:00N 49°30' E 000°04'1 2.2
2017-Sep-02 16:30N 49°30' E 000°03'  
2017-Aug-30 03:37N 49°29' E 000°06'0 0.0
2017-Aug-30 03:28N 49°29' E 000°06'0 0.6
2017-Aug-30 02:59N 49°29' E 000°06'2 3.5
2017-Aug-30 02:29N 49°30' E 000°04'5 5.0
2017-Aug-30 01:35N 49°35' E 000°03'0 5.2
2017-Aug-30 01:30N 49°35' E 000°03'3 5.5
2017-Aug-30 00:59N 49°38' E 000°02'44 6.4
2017-Aug-29 18:09N 50°22' W 000°05'1 4.2
2017-Aug-29 17:59N 50°22' W 000°05'3 6.4
2017-Aug-29 17:29N 50°25' W 000°05'3 6.7
2017-Aug-29 17:00N 50°29' W 000°04'3 6.8
2017-Aug-29 16:30N 50°32' W 000°05'3 6.8
2017-Aug-29 16:00N 50°35' W 000°05'3 6.8
2017-Aug-29 15:30N 50°39' W 000°05'3 6.3
2017-Aug-29 15:00N 50°42' W 000°05'3 6.4
2017-Aug-29 14:29N 50°45' W 000°06'3 0.1
2017-Aug-27 18:56N 50°49' W 000°06'0 0.0
2017-Aug-27 18:16N 50°49' W 000°06'0 0.3
2017-Aug-27 18:00N 50°49' W 000°06'2 3.8
2017-Aug-27 17:29N 50°48' W 000°09'2 3.6
2017-Aug-27 17:00N 50°47' W 000°12'3 5.1
2017-Aug-27 16:30N 50°46' W 000°15'2 4.5
2017-Aug-27 16:00N 50°45' W 000°19'2 4.6
2017-Aug-27 15:30N 50°45' W 000°22'2 4.4
2017-Aug-27 15:00N 50°44' W 000°26'3 5.3
2017-Aug-27 14:29N 50°44' W 000°30'3 5.6
2017-Aug-27 14:00N 50°43' W 000°34'8 5.5
2017-Aug-27 12:35N 50°42' W 000°46'1 6.5
2017-Aug-27 12:26N 50°42' W 000°48'3 6.3
2017-Aug-27 11:58N 50°42' W 000°52'3 6.2
2017-Aug-27 11:30N 50°43' W 000°56'3 6.0
2017-Aug-27 11:00N 50°44' W 001°01'3 6.4
2017-Aug-27 10:30N 50°45' W 001°06'3 7.0
2017-Aug-27 10:00N 50°46' W 001°11'3 6.4
2017-Aug-27 09:30N 50°48' W 001°15'5 0.2
2017-Aug-26 12:28N 50°52' W 001°19'0 0.1
2017-Aug-26 12:00N 50°52' W 001°18'1 1.6
2017-Aug-26 11:29N 50°53' W 001°18'0 0.0
2017-Aug-26 10:59N 50°53' W 001°18'1 1.5
2017-Aug-26 10:30N 50°52' W 001°19'2 4.0
2017-Aug-26 09:57N 50°50' W 001°19'13 5.4
2017-Aug-26 07:37N 50°42' W 001°33'1 6.2
2017-Aug-26 07:23N 50°41' W 001°35'3 5.3
2017-Aug-26 06:53N 50°39' W 001°38'1 4.0
2017-Aug-26 06:31N 50°38' W 001°41'2 4.4
2017-Aug-26 06:00N 50°37' W 001°43'2 4.0
2017-Aug-26 05:25N 50°36' W 001°46'6 2.9
2017-Aug-26 03:23N 50°33' W 001°55'1 2.3
2017-Aug-26 02:59N 50°32' W 001°55'1 2.9
2017-Aug-26 02:29N 50°31' W 001°56'32 5.1
2017-Aug-25 20:15N 50°28' W 002°46'2 6.3
2017-Aug-25 20:00N 50°28' W 002°48'3 6.2
2017-Aug-25 19:30N 50°27' W 002°53'3 5.8
2017-Aug-25 18:57N 50°25' W 002°57'2 5.4
2017-Aug-25 18:30N 50°25' W 003°01'3 5.1
2017-Aug-25 18:00N 50°24' W 003°05'2 4.8
2017-Aug-25 17:30N 50°23' W 003°09'2 4.7
2017-Aug-25 17:00N 50°23' W 003°12'2 4.5
2017-Aug-25 16:30N 50°22' W 003°16'2 4.6
2017-Aug-25 16:00N 50°22' W 003°19'2 3.8
2017-Aug-25 15:30N 50°21' W 003°22'1 1.7
2017-Aug-25 15:00N 50°21' W 003°23'2 2.2
2017-Aug-25 14:00N 50°20' W 003°26'1 3.0
2017-Aug-25 13:30N 50°19' W 003°28'1 2.8
2017-Aug-25 13:00N 50°19' W 003°30'1 2.1
2017-Aug-25 12:30N 50°19' W 003°32'  
Track history (hours):
 
Tides and Currents Weather Stations Pressure Air Temp Water Temp Dewpoint Dewpoint Depression Visibility Wind Speed Wind Dir Waves Ship Positions

Barre Y Va 3

Last reported at 2017-Sep-03 15:39 UTC. Time now 2017-Sep-20 18:34 UTC.
Position N 49°29' E 000°06'.
Warning: this ship's position is 17 days out of date.

Length 10 m.

Type: Sailing vessel. MMSI: 227442420.

Date/timePositionNaut miles runAvg speedWind from/ knotsBaromVisibWave heightAir tempDewpointWater temp
2017-Sep-03 15:39N 49°29' E 000°06'0 0.0
2017-Sep-03 15:30N 49°29' E 000°06'0 0.0
2017-Sep-03 13:26N 49°29' E 000°06'0 0.0
2017-Sep-03 12:59N 49°29' E 000°06'0 0.0
2017-Sep-03 12:29N 49°29' E 000°06'0 0.0
2017-Sep-03 11:59N 49°29' E 000°06'0 0.0
2017-Sep-03 11:29N 49°29' E 000°06'0 0.0
2017-Sep-03 06:48N 49°29' E 000°06'0 0.0
2017-Sep-03 06:30N 49°29' E 000°06'0 0.0
2017-Sep-03 06:00N 49°29' E 000°06'0 0.0
2017-Sep-02 17:59N 49°29' E 000°06'0 0.0
2017-Sep-02 17:29N 49°29' E 000°06'1 1.9
2017-Sep-02 17:00N 49°30' E 000°04'1 2.2
2017-Sep-02 16:30N 49°30' E 000°03'  
2017-Aug-30 03:37N 49°29' E 000°06'0 0.0
2017-Aug-30 03:28N 49°29' E 000°06'0 0.6
2017-Aug-30 02:59N 49°29' E 000°06'2 3.5
2017-Aug-30 02:29N 49°30' E 000°04'5 5.0
2017-Aug-30 01:35N 49°35' E 000°03'0 5.2
2017-Aug-30 01:30N 49°35' E 000°03'3 5.5
2017-Aug-30 00:59N 49°38' E 000°02'44 6.4
2017-Aug-29 18:09N 50°22' W 000°05'1 4.2
2017-Aug-29 17:59N 50°22' W 000°05'3 6.4
2017-Aug-29 17:29N 50°25' W 000°05'3 6.7
2017-Aug-29 17:00N 50°29' W 000°04'3 6.8
2017-Aug-29 16:30N 50°32' W 000°05'3 6.8
2017-Aug-29 16:00N 50°35' W 000°05'3 6.8
2017-Aug-29 15:30N 50°39' W 000°05'3 6.3
2017-Aug-29 15:00N 50°42' W 000°05'3 6.4
2017-Aug-29 14:29N 50°45' W 000°06'3 0.1
2017-Aug-27 18:56N 50°49' W 000°06'0 0.0
2017-Aug-27 18:16N 50°49' W 000°06'0 0.3
2017-Aug-27 18:00N 50°49' W 000°06'2 3.8
2017-Aug-27 17:29N 50°48' W 000°09'2 3.6
2017-Aug-27 17:00N 50°47' W 000°12'3 5.1
2017-Aug-27 16:30N 50°46' W 000°15'2 4.5
2017-Aug-27 16:00N 50°45' W 000°19'2 4.6
2017-Aug-27 15:30N 50°45' W 000°22'2 4.4
2017-Aug-27 15:00N 50°44' W 000°26'3 5.3
2017-Aug-27 14:29N 50°44' W 000°30'3 5.6
2017-Aug-27 14:00N 50°43' W 000°34'8 5.5
2017-Aug-27 12:35N 50°42' W 000°46'1 6.5
2017-Aug-27 12:26N 50°42' W 000°48'3 6.3
2017-Aug-27 11:58N 50°42' W 000°52'3 6.2
2017-Aug-27 11:30N 50°43' W 000°56'3 6.0
2017-Aug-27 11:00N 50°44' W 001°01'3 6.4
2017-Aug-27 10:30N 50°45' W 001°06'3 7.0
2017-Aug-27 10:00N 50°46' W 001°11'3 6.4
2017-Aug-27 09:30N 50°48' W 001°15'5 0.2
2017-Aug-26 12:28N 50°52' W 001°19'0 0.1
2017-Aug-26 12:00N 50°52' W 001°18'1 1.6
2017-Aug-26 11:29N 50°53' W 001°18'0 0.0
2017-Aug-26 10:59N 50°53' W 001°18'1 1.5
2017-Aug-26 10:30N 50°52' W 001°19'2 4.0
2017-Aug-26 09:57N 50°50' W 001°19'13 5.4
2017-Aug-26 07:37N 50°42' W 001°33'1 6.2
2017-Aug-26 07:23N 50°41' W 001°35'3 5.3
2017-Aug-26 06:53N 50°39' W 001°38'1 4.0
2017-Aug-26 06:31N 50°38' W 001°41'2 4.4
2017-Aug-26 06:00N 50°37' W 001°43'2 4.0
2017-Aug-26 05:25N 50°36' W 001°46'6 2.9
2017-Aug-26 03:23N 50°33' W 001°55'1 2.3
2017-Aug-26 02:59N 50°32' W 001°55'1 2.9
2017-Aug-26 02:29N 50°31' W 001°56'32 5.1
2017-Aug-25 20:15N 50°28' W 002°46'2 6.3
2017-Aug-25 20:00N 50°28' W 002°48'3 6.2
2017-Aug-25 19:30N 50°27' W 002°53'3 5.8
2017-Aug-25 18:57N 50°25' W 002°57'2 5.4
2017-Aug-25 18:30N 50°25' W 003°01'3 5.1
2017-Aug-25 18:00N 50°24' W 003°05'2 4.8
2017-Aug-25 17:30N 50°23' W 003°09'2 4.7
2017-Aug-25 17:00N 50°23' W 003°12'2 4.5
2017-Aug-25 16:30N 50°22' W 003°16'2 4.6
2017-Aug-25 16:00N 50°22' W 003°19'2 3.8
2017-Aug-25 15:30N 50°21' W 003°22'1 1.7
2017-Aug-25 15:00N 50°21' W 003°23'2 2.2
2017-Aug-25 14:00N 50°20' W 003°26'1 3.0
2017-Aug-25 13:30N 50°19' W 003°28'1 2.8
2017-Aug-25 13:00N 50°19' W 003°30'1 2.1
2017-Aug-25 12:30N 50°19' W 003°32'  

Dump ship's entire track history